Time;durP1;ratioP1;P1;durP2;ratioP2;P2;SDS_P1;SDS_P2;PMS_P1;PMS_P2;Temp;Humidity;BMP_temperature;BMP_pressure;BME280_temperature;BME280_humidity;BME280_pressure;Samples;Min_cycle;Max_cycle;Signal;HPM_P1;HPM_P2
2023/04/19 00:00:31;;;;;;;8.83;6.80;;;;;;;;;;4991858;28;20184;-80
2023/04/19 00:02:57;;;;;;;9.60;7.13;;;;;;;;;;4996318;28;20270;-81
2023/04/19 00:05:23;;;;;;;8.07;6.70;;;;;;;;;;4980737;28;20182;-80
2023/04/19 00:07:49;;;;;;;10.20;6.30;;;;;;;;;;4981187;28;20263;-80
2023/04/19 00:10:14;;;;;;;9.30;6.70;;;;;;;;;;4981280;28;20184;-80
2023/04/19 00:12:39;;;;;;;7.67;5.93;;;;;;;;;;4993507;28;20212;-80
2023/04/19 00:15:05;;;;;;;8.77;6.63;;;;;;;;;;4975566;28;20300;-80
2023/04/19 00:17:30;;;;;;;10.47;6.67;;;;;;;;;;4982108;28;20181;-81
2023/04/19 00:19:56;;;;;;;8.40;6.67;;;;;;;;;;4980795;28;20180;-82
2023/04/19 00:22:21;;;;;;;9.50;6.67;;;;;;;;;;4978621;28;20195;-79
2023/04/19 00:24:46;;;;;;;9.47;6.53;;;;;;;;;;4975841;28;20176;-80
2023/04/19 00:27:12;;;;;;;10.63;7.10;;;;;;;;;;4979317;28;20204;-81
2023/04/19 00:29:37;;;;;;;9.20;7.03;;;;;;;;;;4982468;28;20177;-82
2023/04/19 00:32:04;;;;;;;11.90;7.20;;;;;;;;;;4980317;28;20278;-83
2023/04/19 00:34:29;;;;;;;9.50;7.13;;;;;;;;;;4992830;28;20204;-80
2023/04/19 00:36:55;;;;;;;11.00;7.23;;;;;;;;;;4980966;28;20171;-80
2023/04/19 00:39:20;;;;;;;12.70;7.47;;;;;;;;;;4980174;28;20203;-80
2023/04/19 00:41:45;;;;;;;10.63;7.03;;;;;;;;;;4979364;28;20192;-80
2023/04/19 00:44:10;;;;;;;12.43;6.73;;;;;;;;;;4981390;28;20184;-81
2023/04/19 00:46:36;;;;;;;11.00;7.40;;;;;;;;;;4998102;28;20180;-81
2023/04/19 00:49:01;;;;;;;12.97;6.63;;;;;;;;;;4982421;28;20164;-81
2023/04/19 00:51:26;;;;;;;8.47;5.97;;;;;;;;;;4982128;28;20204;-80
2023/04/19 00:53:52;;;;;;;9.20;6.77;;;;;;;;;;4970736;28;20201;-81
2023/04/19 00:56:19;;;;;;;9.43;7.07;;;;;;;;;;4980143;28;20654;-81
2023/04/19 00:58:44;;;;;;;10.13;6.93;;;;;;;;;;4982163;28;20181;-81
2023/04/19 01:01:09;;;;;;;10.50;7.20;;;;;;;;;;4979867;28;20204;-81
2023/04/19 01:03:35;;;;;;;10.07;7.60;;;;;;;;;;4982255;28;20175;-81
2023/04/19 01:06:00;;;;;;;11.23;6.97;;;;;;;;;;4982245;28;20181;-81
2023/04/19 01:08:25;;;;;;;10.43;6.93;;;;;;;;;;4997858;28;20173;-80
2023/04/19 01:10:50;;;;;;;9.90;7.03;;;;;;;;;;4981942;28;20245;-81
2023/04/19 01:13:16;;;;;;;11.90;7.57;;;;;;;;;;4980917;28;20192;-80
2023/04/19 01:15:41;;;;;;;8.67;7.20;;;;;;;;;;4983042;28;20252;-80
2023/04/19 01:18:06;;;;;;;9.70;7.30;;;;;;;;;;4992040;28;20187;-81
2023/04/19 01:20:31;;;;;;;10.43;7.43;;;;;;;;;;4980902;28;20172;-84
2023/04/19 01:22:56;;;;;;;9.97;6.97;;;;;;;;;;4981770;28;20191;-80
2023/04/19 01:25:22;;;;;;;11.33;7.50;;;;;;;;;;4980457;28;21661;-80
2023/04/19 01:27:47;;;;;;;11.07;7.47;;;;;;;;;;4982375;28;20564;-82
2023/04/19 01:30:12;;;;;;;10.07;7.53;;;;;;;;;;4983657;28;20360;-81
2023/04/19 01:32:37;;;;;;;12.53;7.33;;;;;;;;;;4980295;28;20224;-80
2023/04/19 01:35:03;;;;;;;12.70;7.77;;;;;;;;;;4980620;28;20195;-80
2023/04/19 01:37:28;;;;;;;10.80;7.23;;;;;;;;;;4979581;28;20271;-80
2023/04/19 01:39:53;;;;;;;11.73;8.20;;;;;;;;;;4982560;28;20173;-83
2023/04/19 01:42:18;;;;;;;9.80;7.20;;;;;;;;;;4980959;28;20208;-81
2023/04/19 01:44:44;;;;;;;14.33;8.07;;;;;;;;;;4982849;28;20181;-80
2023/04/19 01:47:09;;;;;;;10.80;7.70;;;;;;;;;;4980017;28;20181;-80
2023/04/19 01:49:34;;;;;;;10.67;7.40;;;;;;;;;;4978358;28;20180;-82
2023/04/19 01:51:59;;;;;;;11.00;7.93;;;;;;;;;;4983135;28;20292;-81
2023/04/19 01:54:25;;;;;;;12.50;8.27;;;;;;;;;;4981776;28;20299;-82
2023/04/19 01:56:51;;;;;;;11.47;8.03;;;;;;;;;;4981312;28;20164;-82
2023/04/19 01:59:16;;;;;;;9.43;7.90;;;;;;;;;;4978288;28;20216;-81
2023/04/19 02:01:41;;;;;;;11.30;7.40;;;;;;;;;;4980438;28;20220;-80
2023/04/19 02:04:07;;;;;;;9.57;7.20;;;;;;;;;;4976795;28;20176;-81
2023/04/19 02:06:32;;;;;;;11.10;7.77;;;;;;;;;;4996654;28;20183;-81
2023/04/19 02:08:57;;;;;;;12.17;7.90;;;;;;;;;;4979129;28;20187;-80
2023/04/19 02:11:22;;;;;;;10.43;7.60;;;;;;;;;;4980734;28;20200;-80
2023/04/19 02:13:47;;;;;;;13.83;9.10;;;;;;;;;;4980556;28;20208;-80
2023/04/19 02:16:13;;;;;;;12.03;8.33;;;;;;;;;;4979096;28;20647;-80
2023/04/19 02:18:39;;;;;;;13.77;8.43;;;;;;;;;;4976549;28;20223;-81
2023/04/19 02:21:05;;;;;;;11.00;8.10;;;;;;;;;;4979563;28;20624;-81
2023/04/19 02:23:30;;;;;;;13.10;8.63;;;;;;;;;;4979049;28;20172;-80
2023/04/19 02:25:55;;;;;;;12.63;8.07;;;;;;;;;;4979244;28;20187;-82
2023/04/19 02:28:20;;;;;;;12.47;8.47;;;;;;;;;;4978319;28;20192;-82
2023/04/19 02:30:46;;;;;;;11.10;7.73;;;;;;;;;;4995104;28;20235;-80
2023/04/19 02:33:11;;;;;;;12.90;8.33;;;;;;;;;;4992346;28;20208;-81
2023/04/19 02:35:36;;;;;;;11.43;7.80;;;;;;;;;;4994911;28;20259;-80
2023/04/19 02:38:02;;;;;;;11.97;7.43;;;;;;;;;;4995718;28;20227;-80
2023/04/19 02:40:27;;;;;;;14.13;7.90;;;;;;;;;;4978902;28;20243;-82
2023/04/19 02:42:53;;;;;;;12.53;7.73;;;;;;;;;;4979275;28;20200;-80
2023/04/19 02:45:18;;;;;;;11.57;7.50;;;;;;;;;;4980541;28;20240;-80
2023/04/19 02:47:45;;;;;;;11.40;8.47;;;;;;;;;;4979280;28;20293;-81
2023/04/19 02:50:10;;;;;;;11.87;7.83;;;;;;;;;;4977496;28;20184;-81
2023/04/19 02:52:36;;;;;;;12.20;7.80;;;;;;;;;;4975607;28;20271;-82
2023/04/19 02:55:01;;;;;;;13.90;8.20;;;;;;;;;;4976421;28;20203;-81
2023/04/19 02:57:26;;;;;;;12.47;8.80;;;;;;;;;;4979826;28;20219;-81
2023/04/19 02:59:51;;;;;;;11.60;8.03;;;;;;;;;;4994921;28;20181;-79
2023/04/19 03:02:17;;;;;;;11.97;8.30;;;;;;;;;;4978833;28;20800;-81
2023/04/19 03:04:42;;;;;;;8.97;7.30;;;;;;;;;;4982014;28;20157;-80
2023/04/19 03:07:08;;;;;;;11.07;7.77;;;;;;;;;;4981295;28;20191;-80
2023/04/19 03:09:33;;;;;;;12.63;8.07;;;;;;;;;;4981197;28;20181;-80
2023/04/19 03:11:59;;;;;;;11.30;7.83;;;;;;;;;;4992601;28;20211;-81
2023/04/19 03:14:25;;;;;;;11.60;7.93;;;;;;;;;;4974640;28;20332;-81
2023/04/19 03:16:51;;;;;;;11.03;7.43;;;;;;;;;;4974402;28;20201;-81
2023/04/19 03:19:16;;;;;;;11.40;7.93;;;;;;;;;;4973778;28;20553;-81
2023/04/19 03:21:41;;;;;;;12.33;8.17;;;;;;;;;;4976743;28;20204;-81
2023/04/19 03:24:07;;;;;;;11.40;7.90;;;;;;;;;;4978692;28;20179;-81
2023/04/19 03:26:32;;;;;;;11.43;7.33;;;;;;;;;;4978891;28;20204;-81
2023/04/19 03:28:57;;;;;;;11.03;7.37;;;;;;;;;;4977930;28;20164;-81
2023/04/19 03:31:22;;;;;;;10.80;8.33;;;;;;;;;;4994579;28;20203;-80
2023/04/19 03:33:47;;;;;;;10.10;7.50;;;;;;;;;;4978755;28;20215;-81
2023/04/19 03:36:13;;;;;;;10.53;7.90;;;;;;;;;;4976438;28;20181;-80
2023/04/19 03:38:39;;;;;;;11.70;7.80;;;;;;;;;;4994282;28;20180;-81
2023/04/19 03:41:04;;;;;;;10.67;7.63;;;;;;;;;;4980587;28;20294;-81
2023/04/19 03:43:30;;;;;;;10.03;6.97;;;;;;;;;;4979542;28;20208;-81
2023/04/19 03:45:55;;;;;;;10.33;7.60;;;;;;;;;;4976994;28;20276;-81
2023/04/19 03:48:20;;;;;;;16.00;8.80;;;;;;;;;;4980926;28;20186;-81
2023/04/19 03:50:45;;;;;;;11.03;7.13;;;;;;;;;;4993947;28;20173;-81
2023/04/19 03:53:10;;;;;;;14.13;7.80;;;;;;;;;;4978131;28;20199;-80
2023/04/19 03:55:36;;;;;;;11.07;7.43;;;;;;;;;;4998210;28;20203;-80
2023/04/19 03:58:01;;;;;;;10.13;7.20;;;;;;;;;;4979770;28;20662;-81
2023/04/19 04:00:26;;;;;;;11.17;7.43;;;;;;;;;;4981390;28;20187;-81
2023/04/19 04:02:51;;;;;;;9.93;7.00;;;;;;;;;;4973402;28;20279;-81
2023/04/19 04:05:17;;;;;;;10.77;7.17;;;;;;;;;;4993050;28;20180;-81
2023/04/19 04:07:42;;;;;;;10.47;7.07;;;;;;;;;;4977989;28;20235;-81
2023/04/19 04:10:07;;;;;;;10.13;7.53;;;;;;;;;;4978513;28;20188;-82
2023/04/19 04:12:32;;;;;;;15.97;8.33;;;;;;;;;;4967188;28;20227;-81
2023/04/19 04:14:58;;;;;;;11.80;7.67;;;;;;;;;;4976620;28;20191;-81
2023/04/19 04:17:23;;;;;;;10.30;7.10;;;;;;;;;;4969443;28;20188;-80
2023/04/19 04:19:48;;;;;;;11.50;7.37;;;;;;;;;;4993949;28;20183;-81
2023/04/19 04:22:14;;;;;;;10.80;7.13;;;;;;;;;;4980510;28;20203;-81
2023/04/19 04:24:40;;;;;;;10.00;6.77;;;;;;;;;;4976881;28;20207;-81
2023/04/19 04:27:09;;;;;;;8.30;6.77;;;;;;;;;;4993802;28;20186;-81
2023/04/19 04:29:35;;;;;;;9.17;6.70;;;;;;;;;;4980212;28;20180;-80
2023/04/19 04:32:01;;;;;;;9.77;7.27;;;;;;;;;;4979065;28;20204;-81
2023/04/19 04:34:26;;;;;;;13.80;8.00;;;;;;;;;;4979415;28;20208;-81
2023/04/19 04:36:52;;;;;;;10.60;7.10;;;;;;;;;;4992485;28;20476;-81
2023/04/19 04:39:17;;;;;;;9.93;7.17;;;;;;;;;;4978663;28;20204;-80
2023/04/19 04:41:43;;;;;;;10.67;6.80;;;;;;;;;;4994080;28;20697;-81
2023/04/19 04:44:08;;;;;;;15.33;7.17;;;;;;;;;;4977745;28;20180;-82
2023/04/19 04:46:34;;;;;;;7.93;6.30;;;;;;;;;;4991678;28;20263;-81
2023/04/19 04:48:59;;;;;;;9.13;6.80;;;;;;;;;;4978267;28;20559;-81
2023/04/19 04:51:25;;;;;;;14.70;7.93;;;;;;;;;;4993299;28;20279;-81
2023/04/19 04:53:50;;;;;;;10.23;6.83;;;;;;;;;;4978962;28;20246;-81
2023/04/19 04:56:15;;;;;;;12.43;7.40;;;;;;;;;;4992834;28;20180;-81
2023/04/19 04:58:40;;;;;;;13.20;6.77;;;;;;;;;;4993190;28;20184;-80
2023/04/19 05:01:05;;;;;;;8.27;6.53;;;;;;;;;;4977361;28;20231;-80
2023/04/19 05:03:31;;;;;;;14.53;7.40;;;;;;;;;;4975365;28;20268;-81
2023/04/19 05:05:56;;;;;;;9.83;7.10;;;;;;;;;;4973721;28;20200;-82
2023/04/19 05:08:21;;;;;;;11.60;6.10;;;;;;;;;;4990783;28;20227;-80
2023/04/19 05:10:46;;;;;;;11.17;6.97;;;;;;;;;;4975579;28;20207;-81
2023/04/19 05:13:12;;;;;;;10.20;6.60;;;;;;;;;;4978622;28;20323;-80
2023/04/19 05:15:37;;;;;;;11.07;7.37;;;;;;;;;;4992304;28;20200;-81
2023/04/19 05:18:03;;;;;;;9.77;6.77;;;;;;;;;;4988033;28;20183;-81
2023/04/19 05:20:28;;;;;;;11.20;6.47;;;;;;;;;;4972888;28;20185;-81
2023/04/19 05:22:57;;;;;;;9.60;6.10;;;;;;;;;;4975981;28;20633;-81
2023/04/19 05:25:22;;;;;;;8.80;6.70;;;;;;;;;;4987956;28;20180;-80
2023/04/19 05:27:47;;;;;;;8.83;6.20;;;;;;;;;;4980896;28;20184;-80
2023/04/19 05:30:13;;;;;;;10.13;6.60;;;;;;;;;;4984725;28;20176;-80
2023/04/19 05:32:38;;;;;;;12.67;6.03;;;;;;;;;;4980964;28;20227;-82
2023/04/19 05:35:03;;;;;;;12.03;6.30;;;;;;;;;;5003208;28;20203;-80
2023/04/19 05:37:29;;;;;;;11.87;6.80;;;;;;;;;;4993208;28;20176;-81
2023/04/19 05:39:54;;;;;;;7.93;5.83;;;;;;;;;;4995726;28;20202;-81
2023/04/19 05:42:20;;;;;;;9.47;6.60;;;;;;;;;;4990828;28;20208;-80
2023/04/19 05:44:45;;;;;;;8.67;6.23;;;;;;;;;;5010686;28;20176;-80
2023/04/19 05:47:10;;;;;;;9.03;6.13;;;;;;;;;;4990136;28;20184;-81
2023/04/19 05:49:35;;;;;;;8.37;5.70;;;;;;;;;;4988445;28;20172;-79
2023/04/19 05:52:00;;;;;;;8.80;6.00;;;;;;;;;;4999044;28;20266;-80
2023/04/19 05:54:26;;;;;;;9.23;4.87;;;;;;;;;;4964542;28;20205;-81
2023/04/19 05:56:52;;;;;;;9.93;5.97;;;;;;;;;;4977755;28;20674;-81
2023/04/19 05:59:17;;;;;;;8.93;6.43;;;;;;;;;;4983752;28;20184;-81
2023/04/19 06:01:42;;;;;;;9.37;6.10;;;;;;;;;;4974014;28;20207;-80
2023/04/19 06:04:07;;;;;;;8.37;5.23;;;;;;;;;;4975692;28;20181;-80
2023/04/19 06:06:32;;;;;;;9.10;5.53;;;;;;;;;;4976002;28;20176;-80
2023/04/19 06:08:58;;;;;;;8.43;5.30;;;;;;;;;;4985002;28;20720;-81
2023/04/19 06:11:23;;;;;;;11.40;6.60;;;;;;;;;;4978569;28;20227;-80
2023/04/19 06:13:50;;;;;;;9.33;5.33;;;;;;;;;;4994138;28;20216;-81
2023/04/19 06:16:15;;;;;;;6.33;4.93;;;;;;;;;;4977073;28;20176;-81
2023/04/19 06:18:42;;;;;;;12.50;6.37;;;;;;;;;;4979487;28;20172;-82
2023/04/19 06:21:07;;;;;;;9.97;5.43;;;;;;;;;;4986639;28;20196;-80
2023/04/19 06:23:32;;;;;;;8.03;5.30;;;;;;;;;;4989749;28;20269;-82
2023/04/19 06:25:57;;;;;;;6.43;4.50;;;;;;;;;;4988926;28;20172;-80
2023/04/19 06:28:22;;;;;;;7.07;4.93;;;;;;;;;;4985104;28;20212;-81
2023/04/19 06:30:48;;;;;;;9.27;5.13;;;;;;;;;;4988363;28;20706;-81
2023/04/19 06:33:13;;;;;;;6.50;4.67;;;;;;;;;;4986824;28;20180;-82
2023/04/19 06:35:38;;;;;;;5.63;4.63;;;;;;;;;;4986743;28;20205;-81
2023/04/19 06:38:03;;;;;;;9.90;5.70;;;;;;;;;;4988074;28;20211;-81
2023/04/19 06:40:29;;;;;;;8.33;5.47;;;;;;;;;;4991249;28;20188;-80
2023/04/19 06:42:54;;;;;;;6.33;4.60;;;;;;;;;;4988892;28;20208;-81
2023/04/19 06:45:19;;;;;;;8.03;5.60;;;;;;;;;;4989167;28;20208;-81
2023/04/19 06:47:44;;;;;;;10.20;5.03;;;;;;;;;;4989430;28;20180;-79
2023/04/19 06:50:10;;;;;;;11.80;4.97;;;;;;;;;;5001022;28;20180;-82
2023/04/19 06:52:35;;;;;;;6.83;5.13;;;;;;;;;;4988707;28;20196;-80
2023/04/19 06:55:00;;;;;;;6.43;4.40;;;;;;;;;;4999997;28;20196;-79
2023/04/19 06:57:25;;;;;;;8.30;4.70;;;;;;;;;;4980497;28;20180;-80
2023/04/19 06:59:52;;;;;;;9.07;5.43;;;;;;;;;;4991603;28;20183;-80
2023/04/19 07:02:18;;;;;;;7.05;4.93;;;;;;;;;;5004232;28;20321;-80
2023/04/19 07:04:43;;;;;;;5.60;4.03;;;;;;;;;;4980187;28;20176;-81
2023/04/19 07:07:08;;;;;;;7.38;4.80;;;;;;;;;;4978413;28;20184;-80
2023/04/19 07:09:33;;;;;;;7.80;4.93;;;;;;;;;;4984261;28;20602;-80
2023/04/19 07:12:00;;;;;;;5.78;4.68;;;;;;;;;;4992216;28;20681;-80
2023/04/19 07:14:25;;;;;;;6.60;4.30;;;;;;;;;;4978040;28;20223;-80
2023/04/19 07:16:52;;;;;;;7.15;4.57;;;;;;;;;;5004346;28;20181;-80
2023/04/19 07:19:19;;;;;;;6.82;4.05;;;;;;;;;;5015194;28;20169;-81
2023/04/19 07:21:44;;;;;;;7.22;4.63;;;;;;;;;;4990313;28;20203;-79
2023/04/19 07:24:09;;;;;;;5.72;3.42;;;;;;;;;;4995293;28;20180;-80
2023/04/19 07:26:35;;;;;;;5.53;4.13;;;;;;;;;;4979066;28;20181;-80
2023/04/19 07:29:00;;;;;;;5.30;4.18;;;;;;;;;;4978623;28;20210;-80
2023/04/19 07:31:26;;;;;;;7.72;3.90;;;;;;;;;;4978141;28;20202;-81
2023/04/19 07:33:51;;;;;;;7.72;4.15;;;;;;;;;;4994474;28;20645;-80
2023/04/19 07:36:16;;;;;;;5.70;3.88;;;;;;;;;;4981237;28;20169;-80
2023/04/19 07:38:41;;;;;;;6.28;4.15;;;;;;;;;;4978982;28;20235;-80
2023/04/19 07:41:07;;;;;;;5.22;3.30;;;;;;;;;;4979419;28;20208;-80
2023/04/19 07:43:33;;;;;;;6.13;3.58;;;;;;;;;;4980628;28;20226;-81
2023/04/19 07:45:58;;;;;;;5.55;3.92;;;;;;;;;;4981052;28;20180;-80
2023/04/19 07:48:23;;;;;;;5.22;3.75;;;;;;;;;;4978396;28;20184;-83
2023/04/19 07:50:49;;;;;;;3.67;3.25;;;;;;;;;;4988313;28;20176;-80
2023/04/19 07:53:15;;;;;;;5.60;3.88;;;;;;;;;;4979088;28;20180;-80
2023/04/19 07:55:40;;;;;;;4.07;3.05;;;;;;;;;;4977430;28;20204;-80
2023/04/19 07:58:05;;;;;;;5.72;3.38;;;;;;;;;;4983336;28;20623;-81
2023/04/19 08:00:33;;;;;;;4.50;3.15;;;;;;;;;;4976736;28;20903;-80
2023/04/19 08:02:58;;;;;;;5.47;3.47;;;;;;;;;;4980970;28;20189;-80
2023/04/19 08:05:25;;;;;;;6.20;3.00;;;;;;;;;;4975974;28;20661;-81
2023/04/19 08:07:50;;;;;;;4.47;3.03;;;;;;;;;;4970407;28;20271;-81
2023/04/19 08:10:17;;;;;;;6.55;3.50;;;;;;;;;;4973847;28;20275;-80
2023/04/19 08:12:42;;;;;;;3.90;2.92;;;;;;;;;;4973678;28;20220;-80
2023/04/19 08:15:07;;;;;;;2.83;2.55;;;;;;;;;;4976600;28;20211;-80
2023/04/19 08:17:33;;;;;;;3.53;2.88;;;;;;;;;;4977294;28;20196;-80
2023/04/19 08:19:58;;;;;;;4.35;3.05;;;;;;;;;;4974779;28;20184;-78
2023/04/19 08:22:23;;;;;;;4.05;2.80;;;;;;;;;;4975301;28;20247;-78
2023/04/19 08:24:50;;;;;;;5.53;3.05;;;;;;;;;;4974246;28;20680;-80
2023/04/19 08:27:15;;;;;;;5.15;2.90;;;;;;;;;;4974120;28;20184;-78
2023/04/19 08:29:40;;;;;;;6.55;2.58;;;;;;;;;;4975243;28;20231;-79
2023/04/19 08:32:06;;;;;;;3.83;2.70;;;;;;;;;;4974956;28;20541;-80
2023/04/19 08:34:33;;;;;;;3.28;2.72;;;;;;;;;;4975795;28;20216;-79
2023/04/19 08:36:58;;;;;;;6.53;3.15;;;;;;;;;;4975849;28;20195;-82
2023/04/19 08:39:23;;;;;;;3.88;2.72;;;;;;;;;;4973714;28;20712;-79
2023/04/19 08:41:49;;;;;;;4.45;2.70;;;;;;;;;;4977258;28;20200;-79
2023/04/19 08:44:15;;;;;;;4.55;2.80;;;;;;;;;;4977107;28;20192;-80
2023/04/19 08:46:41;;;;;;;3.47;2.58;;;;;;;;;;4973035;28;20196;-81
2023/04/19 08:49:07;;;;;;;3.78;2.80;;;;;;;;;;4989083;28;20180;-78
2023/04/19 08:51:32;;;;;;;8.10;2.67;;;;;;;;;;4976777;28;20212;-80
2023/04/19 08:53:58;;;;;;;3.40;2.30;;;;;;;;;;4976788;28;20191;-81
2023/04/19 08:56:23;;;;;;;4.13;2.55;;;;;;;;;;4976915;28;20181;-79
2023/04/19 08:58:49;;;;;;;5.55;2.55;;;;;;;;;;4974608;28;20220;-79
2023/04/19 09:01:14;;;;;;;3.78;3.13;;;;;;;;;;4974868;28;20195;-79
2023/04/19 09:03:44;;;;;;;4.00;3.10;;;;;;;;;;4978153;28;20180;-79
2023/04/19 09:06:10;;;;;;;6.00;2.97;;;;;;;;;;4993552;28;20208;-82
2023/04/19 09:08:36;;;;;;;10.13;2.97;;;;;;;;;;4978626;28;20656;-79
2023/04/19 09:11:01;;;;;;;5.55;3.67;;;;;;;;;;4977442;28;20215;-79
2023/04/19 09:13:27;;;;;;;4.63;2.92;;;;;;;;;;4981291;28;20228;-78
2023/04/19 09:15:53;;;;;;;7.50;3.08;;;;;;;;;;4975670;28;20234;-78
2023/04/19 09:18:18;;;;;;;7.85;2.80;;;;;;;;;;4975638;28;20188;-79
2023/04/19 09:20:44;;;;;;;6.35;2.22;;;;;;;;;;4974931;28;20263;-79
2023/04/19 09:23:18;;;;;;;2.55;1.98;;;;;;;;;;4975205;28;20188;-78
2023/04/19 09:26:13;;;;;;;4.18;2.40;;;;;;;;;;4972309;28;20187;-79
2023/04/19 09:28:38;;;;;;;3.05;2.10;;;;;;;;;;4972595;28;20249;-79
2023/04/19 09:31:12;;;;;;;3.88;2.25;;;;;;;;;;4973370;28;20307;-78
2023/04/19 09:33:40;;;;;;;2.70;1.70;;;;;;;;;;4974415;28;20177;-78
2023/04/19 09:36:06;;;;;;;3.97;1.55;;;;;;;;;;4976851;28;20200;-79
2023/04/19 09:38:48;;;;;;;2.92;1.60;;;;;;;;;;4974890;28;20230;-78
2023/04/19 09:41:13;;;;;;;2.03;1.65;;;;;;;;;;4972071;28;20270;-78
2023/04/19 09:43:38;;;;;;;3.33;1.30;;;;;;;;;;4974540;28;20176;-78
2023/04/19 09:46:03;;;;;;;2.65;1.65;;;;;;;;;;4987552;28;20232;-78
2023/04/19 09:48:28;;;;;;;2.58;1.52;;;;;;;;;;4975319;28;20651;-78
2023/04/19 09:50:55;;;;;;;3.63;1.40;;;;;;;;;;4975341;28;20550;-78
2023/04/19 09:53:21;;;;;;;4.28;1.30;;;;;;;;;;4973383;28;20551;-78
2023/04/19 09:55:46;;;;;;;3.08;1.10;;;;;;;;;;4973969;28;20192;-78
2023/04/19 09:58:12;;;;;;;1.33;1.10;;;;;;;;;;4972693;28;20195;-78
2023/04/19 10:00:38;;;;;;;2.10;1.27;;;;;;;;;;4973303;28;20185;-79
2023/04/19 10:03:05;;;;;;;2.13;0.90;;;;;;;;;;4979002;28;20801;-79
2023/04/19 10:05:30;;;;;;;2.15;1.23;;;;;;;;;;4976160;28;20177;-79
2023/04/19 10:07:58;;;;;;;2.22;1.23;;;;;;;;;;4975742;28;20183;-79
2023/04/19 10:10:23;;;;;;;1.23;1.00;;;;;;;;;;4993641;28;20184;-79
2023/04/19 10:12:51;;;;;;;3.80;1.30;;;;;;;;;;4977679;28;20247;-79
2023/04/19 10:15:17;;;;;;;1.13;0.90;;;;;;;;;;4974420;28;20291;-79
2023/04/19 10:17:42;;;;;;;2.20;1.50;;;;;;;;;;4976484;28;20204;-78
2023/04/19 10:20:10;;;;;;;1.38;1.10;;;;;;;;;;4975680;28;20205;-79
2023/04/19 10:22:37;;;;;;;1.58;1.15;;;;;;;;;;4979846;28;20564;-80
2023/04/19 10:25:12;;;;;;;2.50;1.08;;;;;;;;;;4967075;28;20184;-79
2023/04/19 10:27:38;;;;;;;2.60;1.38;;;;;;;;;;4973513;28;20187;-79
2023/04/19 10:30:09;;;;;;;2.38;1.15;;;;;;;;;;4973320;28;20180;-77
2023/04/19 10:32:38;;;;;;;3.08;1.42;;;;;;;;;;4972754;28;20204;-78
2023/04/19 10:35:15;;;;;;;3.00;1.30;;;;;;;;;;4983678;28;20207;-77
2023/04/19 10:37:41;;;;;;;3.35;1.50;;;;;;;;;;4974164;28;20176;-78
2023/04/19 10:40:06;;;;;;;2.42;1.25;;;;;;;;;;4974422;28;20172;-77
2023/04/19 10:42:50;;;;;;;5.18;2.30;;;;;;;;;;4975361;28;20219;-79
2023/04/19 10:45:31;;;;;;;1.70;1.40;;;;;;;;;;4971724;28;20758;-79
2023/04/19 10:47:56;;;;;;;2.22;1.20;;;;;;;;;;4972656;28;20202;-78
2023/04/19 10:50:22;;;;;;;1.50;1.33;;;;;;;;;;4966339;28;20669;-78
2023/04/19 10:52:47;;;;;;;4.97;1.48;;;;;;;;;;4969763;28;20200;-79
2023/04/19 10:55:14;;;;;;;2.05;1.58;;;;;;;;;;4970552;28;20287;-79
2023/04/19 10:57:58;;;;;;;3.45;1.40;;;;;;;;;;4986393;28;20319;-79
2023/04/19 11:00:25;;;;;;;1.25;1.15;;;;;;;;;;4974600;28;20610;-79
2023/04/19 11:02:50;;;;;;;2.47;1.38;;;;;;;;;;4976128;28;20239;-80
2023/04/19 11:05:16;;;;;;;7.07;1.73;;;;;;;;;;4975528;28;20185;-79
2023/04/19 11:07:41;;;;;;;2.05;1.58;;;;;;;;;;4977570;28;20188;-77
2023/04/19 11:10:07;;;;;;;5.35;1.88;;;;;;;;;;4973936;28;20232;-78
2023/04/19 11:12:32;;;;;;;1.30;1.20;;;;;;;;;;4989906;28;20219;-80
2023/04/19 11:14:59;;;;;;;2.38;1.50;;;;;;;;;;4973824;28;20279;-79
2023/04/19 11:17:31;;;;;;;2.97;1.40;;;;;;;;;;4973452;28;20212;-79
2023/04/19 11:20:05;;;;;;;1.83;1.20;;;;;;;;;;4973622;28;21134;-79
2023/04/19 11:22:34;;;;;;;2.72;1.58;;;;;;;;;;4971644;28;20227;-79
2023/04/19 11:25:11;;;;;;;1.95;1.42;;;;;;;;;;4988726;28;20307;-80
2023/04/19 11:27:37;;;;;;;1.40;1.00;;;;;;;;;;4987319;28;20184;-78
2023/04/19 11:30:07;;;;;;;4.95;1.63;;;;;;;;;;4988062;28;20279;-78
2023/04/19 11:32:32;;;;;;;2.03;1.40;;;;;;;;;;4973586;28;20605;-79
2023/04/19 11:35:02;;;;;;;2.33;1.20;;;;;;;;;;4972355;28;20204;-79
2023/04/19 11:37:31;;;;;;;3.53;1.33;;;;;;;;;;4971051;28;20177;-79
2023/04/19 11:39:56;;;;;;;1.95;1.33;;;;;;;;;;4971165;28;20267;-78
2023/04/19 11:42:21;;;;;;;1.50;1.27;;;;;;;;;;4973010;28;20837;-78
2023/04/19 11:44:50;;;;;;;1.85;1.20;;;;;;;;;;4976650;28;20421;-78
2023/04/19 11:47:15;;;;;;;4.15;1.52;;;;;;;;;;4976497;28;20669;-77
2023/04/19 11:49:41;;;;;;;2.15;1.23;;;;;;;;;;4976621;28;20184;-77
2023/04/19 11:52:06;;;;;;;2.00;1.33;;;;;;;;;;4993636;28;20303;-79
2023/04/19 11:54:31;;;;;;;1.95;1.38;;;;;;;;;;4991122;28;20204;-79
2023/04/19 11:57:06;;;;;;;3.13;1.88;;;;;;;;;;5012465;28;20236;-79
2023/04/19 11:59:32;;;;;;;4.32;2.03;;;;;;;;;;4989707;28;20179;-79
2023/04/19 12:02:07;;;;;;;3.50;1.73;;;;;;;;;;4976715;28;20729;-78
2023/04/19 12:04:32;;;;;;;4.90;1.67;;;;;;;;;;4979573;28;20175;-79
2023/04/19 12:06:58;;;;;;;2.38;1.30;;;;;;;;;;4980848;28;20603;-79
2023/04/19 12:09:24;;;;;;;3.45;1.63;;;;;;;;;;4976901;28;20669;-79
2023/04/19 12:11:49;;;;;;;3.03;1.60;;;;;;;;;;4978945;28;20212;-79
2023/04/19 12:14:15;;;;;;;5.32;2.38;;;;;;;;;;4979294;28;20212;-78
2023/04/19 12:16:40;;;;;;;4.63;2.45;;;;;;;;;;4977050;28;20207;-79
2023/04/19 12:19:19;;;;;;;2.67;1.58;;;;;;;;;;4980550;28;20191;-79
2023/04/19 12:21:45;;;;;;;2.47;1.70;;;;;;;;;;4991341;28;20483;-78
2023/04/19 12:24:11;;;;;;;3.20;1.42;;;;;;;;;;4977750;28;20180;-79
2023/04/19 12:26:50;;;;;;;3.35;1.80;;;;;;;;;;4978003;28;20199;-79
2023/04/19 12:29:16;;;;;;;4.93;2.00;;;;;;;;;;4973485;28;20188;-78
2023/04/19 12:31:41;;;;;;;4.35;1.67;;;;;;;;;;4975494;28;20213;-78
2023/04/19 12:34:06;;;;;;;5.75;1.98;;;;;;;;;;4975108;28;20253;-78
2023/04/19 12:36:31;;;;;;;2.13;1.58;;;;;;;;;;4975734;28;20750;-79
2023/04/19 12:38:57;;;;;;;2.25;1.42;;;;;;;;;;4976369;28;20180;-79
2023/04/19 12:41:22;;;;;;;2.83;1.75;;;;;;;;;;4975267;28;20192;-78
2023/04/19 12:43:47;;;;;;;2.50;1.80;;;;;;;;;;4973939;28;20564;-78
2023/04/19 12:46:12;;;;;;;3.88;1.70;;;;;;;;;;4973058;28;20673;-79
2023/04/19 12:48:38;;;;;;;2.42;1.73;;;;;;;;;;4973868;28;20258;-78
2023/04/19 12:51:04;;;;;;;2.30;1.60;;;;;;;;;;4970607;28;20207;-77
2023/04/19 12:53:29;;;;;;;3.58;1.50;;;;;;;;;;4973885;28;20184;-78
2023/04/19 12:55:55;;;;;;;2.50;1.73;;;;;;;;;;4972203;28;20204;-78
2023/04/19 12:58:20;;;;;;;2.47;1.90;;;;;;;;;;4976282;28;20181;-79
2023/04/19 13:00:45;;;;;;;4.15;1.95;;;;;;;;;;4967336;28;20415;-79
2023/04/19 13:03:11;;;;;;;4.40;1.90;;;;;;;;;;4977741;28;20183;-78
2023/04/19 13:05:36;;;;;;;2.40;1.63;;;;;;;;;;4989274;28;20196;-79
2023/04/19 13:08:01;;;;;;;2.58;1.75;;;;;;;;;;4971448;28;20188;-79
2023/04/19 13:10:27;;;;;;;5.57;2.22;;;;;;;;;;4972821;28;20187;-78
2023/04/19 13:12:52;;;;;;;2.10;1.60;;;;;;;;;;4972366;28;20929;-78
2023/04/19 13:15:17;;;;;;;2.50;1.70;;;;;;;;;;4986356;28;20195;-78
2023/04/19 13:17:43;;;;;;;2.97;2.25;;;;;;;;;;4972720;28;20279;-78
2023/04/19 13:20:08;;;;;;;2.63;2.03;;;;;;;;;;4969312;28;20647;-79
2023/04/19 13:22:34;;;;;;;4.00;2.10;;;;;;;;;;4974909;28;20204;-78
2023/04/19 13:24:59;;;;;;;3.28;2.03;;;;;;;;;;4972928;28;20227;-78
2023/04/19 13:27:24;;;;;;;2.25;1.85;;;;;;;;;;4973775;28;20195;-78
2023/04/19 13:29:49;;;;;;;3.67;2.38;;;;;;;;;;4973413;28;20300;-76
2023/04/19 13:32:15;;;;;;;3.50;1.90;;;;;;;;;;4973978;28;20211;-78
2023/04/19 13:34:40;;;;;;;8.55;2.75;;;;;;;;;;4972550;28;20204;-78
2023/04/19 13:37:06;;;;;;;4.07;2.33;;;;;;;;;;4969083;28;20639;-78
2023/04/19 13:39:31;;;;;;;3.33;2.00;;;;;;;;;;4970040;28;20184;-77
2023/04/19 13:41:57;;;;;;;3.28;2.28;;;;;;;;;;4971477;28;20199;-77
2023/04/19 13:44:24;;;;;;;4.20;2.22;;;;;;;;;;4982204;28;20185;-78
2023/04/19 13:46:49;;;;;;;3.60;1.90;;;;;;;;;;4973428;28;20202;-78
2023/04/19 13:49:14;;;;;;;2.08;1.58;;;;;;;;;;4971168;28;20184;-79
2023/04/19 13:51:40;;;;;;;4.65;1.75;;;;;;;;;;4973957;28;20219;-79
2023/04/19 13:54:05;;;;;;;3.05;2.45;;;;;;;;;;4972514;28;20184;-79
2023/04/19 13:56:30;;;;;;;2.22;1.67;;;;;;;;;;4970458;28;20187;-79
2023/04/19 13:58:55;;;;;;;2.92;1.90;;;;;;;;;;4972400;28;20184;-80
2023/04/19 14:01:21;;;;;;;3.13;1.90;;;;;;;;;;4975051;28;20263;-78
2023/04/19 14:03:46;;;;;;;2.70;2.13;;;;;;;;;;4975057;28;20546;-79
2023/04/19 14:06:11;;;;;;;2.22;1.70;;;;;;;;;;4985119;28;20234;-79
2023/04/19 14:08:36;;;;;;;3.30;2.50;;;;;;;;;;4987018;28;20658;-79
2023/04/19 14:11:01;;;;;;;4.18;2.65;;;;;;;;;;4969307;28;20204;-79
2023/04/19 14:13:27;;;;;;;4.03;2.10;;;;;;;;;;4973050;28;20204;-78
2023/04/19 14:15:52;;;;;;;4.85;2.17;;;;;;;;;;4972724;28;20623;-79
2023/04/19 14:18:17;;;;;;;3.17;1.88;;;;;;;;;;4972872;28;20177;-79
2023/04/19 14:20:42;;;;;;;4.18;2.10;;;;;;;;;;4973806;28;20173;-78
2023/04/19 14:23:07;;;;;;;4.03;1.90;;;;;;;;;;4976233;28;20223;-78
2023/04/19 14:25:33;;;;;;;2.88;2.00;;;;;;;;;;4966997;28;20651;-78
2023/04/19 14:27:58;;;;;;;4.18;2.50;;;;;;;;;;4981018;28;20188;-79
2023/04/19 14:30:25;;;;;;;2.50;1.88;;;;;;;;;;4971883;28;20176;-79